createdAt,value
2023-01-27T00:00:49.306Z,244.24
2023-01-27T00:01:49.302Z,244.24
2023-01-27T00:02:49.308Z,244.24
2023-01-27T00:03:49.407Z,244.24
2023-01-27T00:04:49.306Z,244.24
2023-01-27T00:05:49.301Z,244.24
2023-01-27T00:06:49.296Z,244.24
2023-01-27T00:07:49.305Z,244.24
2023-01-27T00:08:49.317Z,244.24
2023-01-27T00:09:49.294Z,244.24
2023-01-27T00:10:49.325Z,244.24
2023-01-27T00:11:49.291Z,244.24
2023-01-27T00:12:49.313Z,244.24
2023-01-27T00:13:49.345Z,244.24
2023-01-27T00:14:49.306Z,244.24
2023-01-27T00:15:49.307Z,244.24
2023-01-27T00:16:49.306Z,244.24
2023-01-27T00:17:49.310Z,244.24
2023-01-27T00:18:49.306Z,244.24
2023-01-27T00:19:49.303Z,244.24
2023-01-27T00:20:49.307Z,244.24
2023-01-27T00:21:49.300Z,244.24
2023-01-27T00:22:49.323Z,244.24
2023-01-27T00:23:49.336Z,244.24
2023-01-27T00:24:49.299Z,244.24
2023-01-27T00:25:49.312Z,244.24
2023-01-27T00:26:49.308Z,197.65
2023-01-27T00:27:49.307Z,204.71
2023-01-27T00:28:49.333Z,207.53
2023-01-27T00:29:49.332Z,196.24
2023-01-27T00:30:49.333Z,206.12
2023-01-27T00:31:49.360Z,206.12
2023-01-27T00:32:49.317Z,206.12
2023-01-27T00:33:49.323Z,206.12
2023-01-27T00:34:49.325Z,252.71
2023-01-27T00:35:49.317Z,242.82
2023-01-27T00:36:49.306Z,242.82
2023-01-27T00:37:49.320Z,242.82
2023-01-27T00:38:49.316Z,242.82
2023-01-27T00:39:49.323Z,242.82
2023-01-27T00:40:49.301Z,242.82
2023-01-27T00:41:49.321Z,242.82
2023-01-27T00:42:49.305Z,249.88
2023-01-27T00:43:49.310Z,241.41
2023-01-27T00:44:49.316Z,241.41
2023-01-27T00:45:49.386Z,241.41
2023-01-27T00:46:49.446Z,241.41
2023-01-27T00:47:49.308Z,241.41
2023-01-27T00:48:49.323Z,241.41
2023-01-27T00:49:49.310Z,241.41
2023-01-27T00:50:49.326Z,241.41
2023-01-27T00:51:49.334Z,241.41
2023-01-27T00:52:49.313Z,273.88
2023-01-27T00:53:49.339Z,275.29
2023-01-27T00:54:49.319Z,268.24
2023-01-27T00:55:49.305Z,289.41
2023-01-27T00:56:49.324Z,282.35
2023-01-27T00:57:49.332Z,279.53
2023-01-27T00:58:49.328Z,293.65
2023-01-27T00:59:49.309Z,290.82
2023-01-27T01:00:49.316Z,286.59
2023-01-27T01:01:49.434Z,295.06
2023-01-27T01:02:49.357Z,234.35
2023-01-27T01:03:49.314Z,254.12
2023-01-27T01:04:49.311Z,248.47
2023-01-27T01:05:49.331Z,213.18
2023-01-27T01:06:49.323Z,216
2023-01-27T01:07:49.314Z,210.35
2023-01-27T01:08:49.318Z,211.76
2023-01-27T01:09:49.327Z,211.76
2023-01-27T01:10:49.324Z,211.76
2023-01-27T01:11:49.330Z,211.76
2023-01-27T01:12:49.322Z,211.76
2023-01-27T01:13:49.329Z,211.76
2023-01-27T01:14:49.329Z,211.76
2023-01-27T01:15:49.333Z,211.76
2023-01-27T01:16:49.323Z,211.76
2023-01-27T01:17:49.363Z,211.76
2023-01-27T01:18:49.331Z,211.76
2023-01-27T01:19:49.336Z,211.76
2023-01-27T01:20:49.336Z,211.76
2023-01-27T01:21:49.353Z,211.76
2023-01-27T01:22:49.325Z,211.76
2023-01-27T01:23:49.473Z,211.76
2023-01-27T01:24:49.337Z,211.76
2023-01-27T01:25:49.319Z,211.76
2023-01-27T01:26:49.333Z,211.76
2023-01-27T01:27:49.322Z,211.76
2023-01-27T01:28:49.323Z,211.76
2023-01-27T01:29:49.339Z,211.76
2023-01-27T01:30:49.420Z,211.76
2023-01-27T01:31:49.381Z,211.76
2023-01-27T01:32:49.338Z,211.76
2023-01-27T01:33:49.374Z,211.76
2023-01-27T01:34:49.335Z,211.76
2023-01-27T01:35:49.331Z,211.76
2023-01-27T01:36:49.323Z,211.76
2023-01-27T01:37:49.328Z,211.76
2023-01-27T01:38:49.363Z,211.76
2023-01-27T01:39:49.350Z,211.76
2023-01-27T01:40:49.327Z,211.76
2023-01-27T01:41:49.339Z,211.76
2023-01-27T01:42:49.338Z,211.76
2023-01-27T01:43:49.327Z,211.76
2023-01-27T01:44:49.327Z,211.76
2023-01-27T01:45:49.320Z,211.76
2023-01-27T01:46:49.337Z,211.76
2023-01-27T01:47:49.328Z,211.76
2023-01-27T01:48:49.337Z,211.76
2023-01-27T01:49:49.358Z,211.76
2023-01-27T01:50:49.325Z,211.76
2023-01-27T01:51:49.337Z,211.76
2023-01-27T01:52:49.323Z,211.76
2023-01-27T01:53:49.356Z,211.76
2023-01-27T01:54:49.324Z,211.76
2023-01-27T01:55:49.345Z,211.76
2023-01-27T01:56:49.353Z,211.76
2023-01-27T01:57:49.340Z,211.76
2023-01-27T01:58:49.334Z,211.76
2023-01-27T01:59:49.333Z,211.76
2023-01-27T02:00:49.374Z,211.76
2023-01-27T02:01:49.332Z,211.76
2023-01-27T02:02:49.396Z,211.76
2023-01-27T02:03:49.337Z,211.76
2023-01-27T02:04:49.329Z,211.76
2023-01-27T02:05:49.348Z,211.76
2023-01-27T02:06:49.330Z,211.76
2023-01-27T02:07:49.333Z,211.76
2023-01-27T02:08:49.340Z,211.76
2023-01-27T02:09:49.326Z,211.76
2023-01-27T02:10:49.326Z,211.76
2023-01-27T02:11:49.334Z,211.76
2023-01-27T02:12:49.342Z,211.76
2023-01-27T02:13:49.331Z,211.76
2023-01-27T02:14:49.348Z,211.76
2023-01-27T02:15:49.342Z,211.76
2023-01-27T02:16:49.365Z,211.76
2023-01-27T02:17:49.328Z,211.76
2023-01-27T02:18:49.331Z,211.76
2023-01-27T02:19:49.327Z,211.76
2023-01-27T02:20:49.355Z,211.76
2023-01-27T02:21:49.721Z,211.76
2023-01-27T02:22:49.327Z,211.76
2023-01-27T02:23:49.384Z,211.76
2023-01-27T02:24:49.338Z,211.76
2023-01-27T02:25:49.341Z,211.76
2023-01-27T02:26:49.336Z,211.76
2023-01-27T02:27:49.340Z,211.76
2023-01-27T02:28:49.339Z,211.76
2023-01-27T02:29:49.362Z,211.76
2023-01-27T02:30:49.401Z,211.76
2023-01-27T02:31:49.410Z,211.76
2023-01-27T02:32:49.341Z,211.76
2023-01-27T02:33:49.329Z,211.76
2023-01-27T02:34:49.332Z,211.76
2023-01-27T02:35:49.329Z,211.76
2023-01-27T02:36:49.345Z,211.76
2023-01-27T02:37:49.366Z,211.76
2023-01-27T02:38:49.364Z,211.76
2023-01-27T02:39:49.367Z,211.76
2023-01-27T02:40:49.345Z,211.76
2023-01-27T02:41:49.338Z,211.76
2023-01-27T02:42:49.356Z,211.76
2023-01-27T02:43:49.334Z,211.76
2023-01-27T02:44:49.335Z,211.76
2023-01-27T02:45:49.347Z,211.76
2023-01-27T02:46:49.330Z,211.76
2023-01-27T02:47:49.340Z,211.76
2023-01-27T02:48:49.340Z,211.76
2023-01-27T02:49:49.344Z,211.76
2023-01-27T02:50:49.337Z,211.76
2023-01-27T02:51:49.337Z,211.76
2023-01-27T02:52:49.349Z,211.76
2023-01-27T02:53:49.370Z,211.76
2023-01-27T02:54:49.348Z,211.76
2023-01-27T02:55:49.338Z,211.76
2023-01-27T02:56:49.345Z,211.76
2023-01-27T02:57:49.339Z,211.76
2023-01-27T02:58:49.344Z,211.76
2023-01-27T02:59:49.339Z,211.76
2023-01-27T03:00:49.332Z,211.76
2023-01-27T03:01:49.377Z,211.76
2023-01-27T03:02:49.334Z,211.76
2023-01-27T03:03:49.334Z,211.76
2023-01-27T03:04:49.351Z,211.76
2023-01-27T03:05:49.337Z,211.76
2023-01-27T03:06:49.342Z,211.76
2023-01-27T03:07:49.336Z,211.76
2023-01-27T03:08:49.336Z,211.76
2023-01-27T03:09:49.380Z,211.76
2023-01-27T03:10:49.335Z,127.06
2023-01-27T03:11:49.350Z,135.53
2023-01-27T03:12:49.350Z,153.88
2023-01-27T03:13:49.336Z,146.82
2023-01-27T03:14:49.350Z,153.88
2023-01-27T03:15:49.403Z,151.06
2023-01-27T03:16:49.342Z,162.35
2023-01-27T03:17:49.352Z,151.06
2023-01-27T03:18:49.350Z,149.65
2023-01-27T03:19:49.348Z,155.29
2023-01-27T03:20:49.378Z,153.88
2023-01-27T03:21:49.350Z,162.35
2023-01-27T03:22:49.361Z,168
2023-01-27T03:23:49.477Z,166.59
2023-01-27T03:24:49.363Z,166.59
2023-01-27T03:25:49.368Z,166.59
2023-01-27T03:26:49.356Z,166.59
2023-01-27T03:27:49.361Z,166.59
2023-01-27T03:28:49.354Z,166.59
2023-01-27T03:29:49.375Z,166.59
2023-01-27T03:30:49.499Z,166.59
2023-01-27T03:31:49.433Z,166.59
2023-01-27T03:32:49.403Z,166.59
2023-01-27T03:33:49.373Z,166.59
2023-01-27T03:34:49.370Z,166.59
2023-01-27T03:35:49.404Z,166.59
2023-01-27T03:36:49.379Z,166.59
2023-01-27T03:37:49.384Z,166.59
2023-01-27T03:38:49.373Z,166.59
2023-01-27T03:39:49.367Z,166.59
2023-01-27T03:40:49.390Z,166.59
2023-01-27T03:41:49.409Z,166.59
2023-01-27T03:42:49.382Z,166.59
2023-01-27T03:43:49.373Z,166.59
2023-01-27T03:44:49.384Z,76.24
2023-01-27T03:45:49.428Z,76.24
2023-01-27T03:46:49.385Z,76.24
2023-01-27T03:47:49.386Z,76.24
2023-01-27T03:48:49.384Z,76.24
2023-01-27T03:49:49.379Z,76.24
2023-01-27T03:50:49.377Z,104.47
2023-01-27T03:51:49.393Z,103.06
2023-01-27T03:52:49.395Z,103.06
2023-01-27T03:53:49.384Z,103.06
2023-01-27T03:54:49.398Z,103.06
2023-01-27T03:55:49.391Z,103.06
2023-01-27T03:56:49.403Z,103.06
2023-01-27T03:57:49.416Z,103.06
2023-01-27T03:58:49.400Z,103.06
2023-01-27T03:59:49.411Z,103.06
2023-01-27T04:00:49.406Z,103.06
2023-01-27T04:01:49.479Z,103.06
2023-01-27T04:02:49.455Z,103.06
2023-01-27T04:03:49.398Z,103.06
2023-01-27T04:04:49.421Z,103.06
2023-01-27T04:05:49.405Z,103.06
2023-01-27T04:06:49.405Z,103.06
2023-01-27T04:07:49.417Z,103.06
2023-01-27T04:08:49.421Z,103.06
2023-01-27T04:09:49.421Z,103.06
2023-01-27T04:10:49.410Z,103.06
2023-01-27T04:11:49.412Z,103.06
2023-01-27T04:12:49.410Z,103.06
2023-01-27T04:13:49.447Z,103.06
2023-01-27T04:14:49.428Z,103.06
2023-01-27T04:15:49.460Z,103.06
2023-01-27T04:16:49.437Z,103.06
2023-01-27T04:17:49.443Z,103.06
2023-01-27T04:18:49.832Z,103.06
2023-01-27T04:19:49.435Z,103.06
2023-01-27T04:20:49.437Z,103.06
2023-01-27T04:21:49.451Z,103.06
2023-01-27T04:22:49.455Z,103.06
2023-01-27T04:23:49.497Z,103.06
2023-01-27T04:24:49.437Z,103.06
2023-01-27T04:25:49.440Z,103.06
2023-01-27T04:26:49.438Z,103.06
2023-01-27T04:27:49.436Z,103.06
2023-01-27T04:28:49.449Z,103.06
2023-01-27T04:29:49.469Z,103.06
2023-01-27T04:30:49.492Z,103.06
2023-01-27T04:31:49.555Z,103.06
2023-01-27T04:32:49.451Z,103.06
2023-01-27T04:33:49.463Z,103.06
2023-01-27T04:34:49.495Z,103.06
2023-01-27T04:35:49.467Z,103.06
2023-01-27T04:36:49.465Z,103.06
2023-01-27T04:37:49.464Z,103.06
2023-01-27T04:38:49.450Z,103.06
2023-01-27T04:39:49.459Z,103.06
2023-01-27T04:40:49.461Z,103.06
2023-01-27T04:41:49.467Z,103.06
2023-01-27T04:42:49.456Z,103.06
2023-01-27T04:43:49.466Z,103.06
2023-01-27T04:44:49.484Z,103.06
2023-01-27T04:45:49.528Z,103.06
2023-01-27T04:46:49.500Z,103.06
2023-01-27T04:47:49.483Z,103.06
2023-01-27T04:48:49.499Z,103.06
2023-01-27T04:49:49.488Z,103.06
2023-01-27T04:50:49.484Z,103.06
2023-01-27T04:51:49.482Z,103.06
2023-01-27T04:52:49.479Z,103.06
2023-01-27T04:53:49.482Z,103.06
2023-01-27T04:54:49.486Z,103.06
2023-01-27T04:55:49.496Z,103.06
2023-01-27T04:56:49.481Z,103.06
2023-01-27T04:57:49.484Z,103.06
2023-01-27T04:58:49.492Z,103.06
2023-01-27T04:59:49.480Z,103.06
2023-01-27T05:00:49.508Z,103.06
2023-01-27T05:01:49.581Z,103.06
2023-01-27T05:02:49.510Z,103.06
2023-01-27T05:03:49.481Z,103.06
2023-01-27T05:04:49.482Z,103.06
2023-01-27T05:05:49.505Z,103.06
2023-01-27T05:06:49.509Z,103.06
2023-01-27T05:07:49.503Z,103.06
2023-01-27T05:08:49.520Z,103.06
2023-01-27T05:09:49.531Z,103.06
2023-01-27T05:10:49.505Z,103.06
2023-01-27T05:11:49.516Z,103.06
2023-01-27T05:12:49.514Z,103.06
2023-01-27T05:13:49.514Z,103.06
2023-01-27T05:14:49.515Z,103.06
2023-01-27T05:15:49.547Z,103.06
2023-01-27T05:16:49.559Z,103.06
2023-01-27T05:17:49.535Z,103.06
2023-01-27T05:18:49.558Z,103.06
2023-01-27T05:19:49.523Z,103.06
2023-01-27T05:20:51.468Z,103.06
2023-01-27T05:21:49.519Z,103.06
2023-01-27T05:22:49.527Z,103.06
2023-01-27T05:23:49.599Z,103.06
2023-01-27T05:24:49.541Z,103.06
2023-01-27T05:25:49.532Z,103.06
2023-01-27T05:26:49.543Z,103.06
2023-01-27T05:27:49.522Z,103.06
2023-01-27T05:28:49.532Z,103.06
2023-01-27T05:29:49.534Z,103.06
2023-01-27T05:30:49.628Z,103.06
2023-01-27T05:31:49.549Z,103.06
2023-01-27T05:32:49.535Z,103.06
2023-01-27T05:33:49.557Z,103.06
2023-01-27T05:34:49.536Z,103.06
2023-01-27T05:35:49.531Z,103.06
2023-01-27T05:36:49.550Z,103.06
2023-01-27T05:37:49.551Z,103.06
2023-01-27T05:38:49.531Z,103.06
2023-01-27T05:39:49.568Z,103.06
2023-01-27T05:40:49.537Z,103.06
2023-01-27T05:41:49.542Z,103.06
2023-01-27T05:42:49.545Z,105.88
2023-01-27T05:43:49.541Z,98.82
2023-01-27T05:44:50.554Z,98.82
2023-01-27T05:45:49.547Z,98.82
2023-01-27T05:46:49.622Z,98.82
2023-01-27T05:47:49.547Z,98.82
2023-01-27T05:48:49.551Z,98.82
2023-01-27T05:49:49.583Z,98.82
2023-01-27T05:50:49.558Z,98.82
2023-01-27T05:51:49.559Z,98.82
2023-01-27T05:52:49.548Z,98.82
2023-01-27T05:53:49.559Z,98.82
2023-01-27T05:54:49.570Z,98.82
2023-01-27T05:55:49.557Z,98.82
2023-01-27T05:56:49.561Z,98.82
2023-01-27T05:57:49.562Z,98.82
2023-01-27T05:58:49.564Z,98.82
2023-01-27T05:59:49.565Z,98.82
2023-01-27T06:00:49.569Z,98.82
2023-01-27T06:01:49.627Z,98.82
2023-01-27T06:02:49.590Z,98.82
2023-01-27T06:03:49.576Z,98.82
2023-01-27T06:04:49.565Z,98.82
2023-01-27T06:05:49.588Z,98.82
2023-01-27T06:06:49.568Z,98.82
2023-01-27T06:07:49.569Z,98.82
2023-01-27T06:08:49.597Z,98.82
2023-01-27T06:09:49.580Z,98.82
2023-01-27T06:10:49.571Z,98.82
2023-01-27T06:11:49.573Z,98.82
2023-01-27T06:12:49.578Z,98.82
2023-01-27T06:13:49.580Z,98.82
2023-01-27T06:14:49.582Z,98.82
2023-01-27T06:15:49.583Z,98.82
2023-01-27T06:16:49.704Z,98.82
2023-01-27T06:17:51.421Z,98.82
2023-01-27T06:18:49.580Z,98.82
2023-01-27T06:19:49.585Z,142.59
2023-01-27T06:20:49.595Z,151.06
2023-01-27T06:21:49.615Z,169.41
2023-01-27T06:22:49.587Z,169.41
2023-01-27T06:23:49.869Z,169.41
2023-01-27T06:24:49.582Z,169.41
2023-01-27T06:25:49.584Z,169.41
2023-01-27T06:26:49.621Z,169.41
2023-01-27T06:27:49.591Z,169.41
2023-01-27T06:28:49.600Z,169.41
2023-01-27T06:29:49.578Z,169.41
2023-01-27T06:30:49.610Z,169.41
2023-01-27T06:31:49.608Z,169.41
2023-01-27T06:32:49.586Z,169.41
2023-01-27T06:33:49.592Z,169.41
2023-01-27T06:34:49.603Z,214.59
2023-01-27T06:35:49.595Z,197.65
2023-01-27T06:36:49.592Z,183.53
2023-01-27T06:37:49.617Z,169.41
2023-01-27T06:38:49.630Z,169.41
2023-01-27T06:39:49.599Z,162.35
2023-01-27T06:40:49.604Z,162.35
2023-01-27T06:41:49.624Z,162.35
2023-01-27T06:42:49.590Z,162.35
2023-01-27T06:43:49.600Z,162.35
2023-01-27T06:44:49.601Z,162.35
2023-01-27T06:45:49.599Z,162.35
2023-01-27T06:46:49.608Z,162.35
2023-01-27T06:47:49.598Z,162.35
2023-01-27T06:48:49.608Z,162.35
2023-01-27T06:49:49.611Z,162.35
2023-01-27T06:50:49.603Z,162.35
2023-01-27T06:51:49.599Z,162.35
2023-01-27T06:52:49.613Z,162.35
2023-01-27T06:53:49.632Z,162.35
2023-01-27T06:54:49.619Z,162.35
2023-01-27T06:55:49.641Z,162.35
2023-01-27T06:56:49.618Z,162.35
2023-01-27T06:57:49.621Z,162.35
2023-01-27T06:58:49.614Z,162.35
2023-01-27T06:59:49.627Z,162.35
2023-01-27T07:00:49.600Z,162.35
2023-01-27T07:01:49.674Z,162.35
2023-01-27T07:02:49.676Z,162.35
2023-01-27T07:03:49.612Z,162.35
2023-01-27T07:04:49.615Z,162.35
2023-01-27T07:05:49.605Z,162.35
2023-01-27T07:06:49.621Z,162.35
2023-01-27T07:07:49.621Z,162.35
2023-01-27T07:08:49.631Z,162.35
2023-01-27T07:09:52.545Z,162.35
2023-01-27T07:10:49.629Z,162.35
2023-01-27T07:11:49.629Z,162.35
2023-01-27T07:12:49.630Z,162.35
2023-01-27T07:13:49.630Z,162.35
2023-01-27T07:14:49.625Z,162.35
2023-01-27T07:15:49.618Z,162.35
2023-01-27T07:16:49.628Z,162.35
2023-01-27T07:17:49.620Z,162.35
2023-01-27T07:18:49.615Z,162.35
2023-01-27T07:19:49.626Z,162.35
2023-01-27T07:20:49.629Z,162.35
2023-01-27T07:21:49.636Z,155.29
2023-01-27T07:22:49.613Z,94.59
2023-01-27T07:23:49.632Z,156.71
2023-01-27T07:24:49.624Z,141.18
2023-01-27T07:25:49.662Z,163.76
2023-01-27T07:26:49.631Z,163.76
2023-01-27T07:27:49.626Z,139.76
2023-01-27T07:28:49.615Z,139.76
2023-01-27T07:29:49.609Z,152.47
2023-01-27T07:30:49.647Z,152.47
2023-01-27T07:31:49.694Z,193.41
2023-01-27T07:32:49.628Z,149.65
2023-01-27T07:33:49.614Z,168
2023-01-27T07:34:49.623Z,168
2023-01-27T07:35:49.629Z,168
2023-01-27T07:36:49.643Z,168
2023-01-27T07:37:49.640Z,175.06
2023-01-27T07:38:49.623Z,175.06
2023-01-27T07:39:49.612Z,201.88
2023-01-27T07:40:49.632Z,172.24
2023-01-27T07:41:49.642Z,169.41
2023-01-27T07:42:49.636Z,151.06
2023-01-27T07:43:51.478Z,172.24
2023-01-27T07:44:49.639Z,172.24
2023-01-27T07:45:49.680Z,217.41
2023-01-27T07:46:49.632Z,182.12
2023-01-27T07:47:49.627Z,153.88
2023-01-27T07:48:49.646Z,176.47
2023-01-27T07:49:49.636Z,217.41
2023-01-27T07:50:49.637Z,211.76
2023-01-27T07:51:49.678Z,173.65
2023-01-27T07:52:49.637Z,194.82
2023-01-27T07:53:49.632Z,217.41
2023-01-27T07:54:49.627Z,220.24
2023-01-27T07:55:49.637Z,131.29
2023-01-27T07:56:49.675Z,136.94
2023-01-27T07:57:49.667Z,115.76
2023-01-27T07:58:49.644Z,115.76
2023-01-27T07:59:49.640Z,115.76
2023-01-27T08:00:49.653Z,115.76
2023-01-27T08:01:49.641Z,115.76
2023-01-27T08:02:49.758Z,115.76
2023-01-27T08:03:49.641Z,115.76
2023-01-27T08:04:53.134Z,115.76
2023-01-27T08:05:49.646Z,115.76
2023-01-27T08:06:49.648Z,115.76
2023-01-27T08:07:49.651Z,115.76
2023-01-27T08:08:49.656Z,115.76
2023-01-27T08:09:49.660Z,115.76
2023-01-27T08:10:49.660Z,115.76
2023-01-27T08:11:49.649Z,115.76
2023-01-27T08:12:49.764Z,115.76
2023-01-27T08:13:49.706Z,115.76
2023-01-27T08:14:49.675Z,115.76
2023-01-27T08:15:49.662Z,115.76
2023-01-27T08:16:49.732Z,145.41
2023-01-27T08:17:49.669Z,145.41
2023-01-27T08:18:49.661Z,145.41
2023-01-27T08:19:49.663Z,145.41
2023-01-27T08:20:49.682Z,145.41
2023-01-27T08:21:49.672Z,145.41
2023-01-27T08:22:49.670Z,145.41
2023-01-27T08:23:49.717Z,145.41
2023-01-27T08:24:49.698Z,145.41
2023-01-27T08:25:49.684Z,145.41
2023-01-27T08:26:49.675Z,145.41
2023-01-27T08:27:49.684Z,145.41
2023-01-27T08:28:49.704Z,145.41
2023-01-27T08:29:49.761Z,142.59
2023-01-27T08:30:49.721Z,213.18
2023-01-27T08:31:49.738Z,213.18
2023-01-27T08:32:49.685Z,213.18
2023-01-27T08:33:49.697Z,213.18
2023-01-27T08:34:49.695Z,213.18
2023-01-27T08:35:49.693Z,213.18
2023-01-27T08:36:49.702Z,213.18
2023-01-27T08:37:49.701Z,213.18
2023-01-27T08:38:49.709Z,213.18
2023-01-27T08:39:49.695Z,213.18
2023-01-27T08:40:49.696Z,213.18
2023-01-27T08:41:49.708Z,213.18
2023-01-27T08:42:49.715Z,213.18
2023-01-27T08:43:49.701Z,213.18
2023-01-27T08:44:49.739Z,213.18
2023-01-27T08:45:49.808Z,213.18
2023-01-27T08:46:49.711Z,213.18
2023-01-27T08:47:49.718Z,213.18
2023-01-27T08:48:49.704Z,213.18
2023-01-27T08:49:49.716Z,213.18
2023-01-27T08:50:49.724Z,213.18
2023-01-27T08:51:49.719Z,213.18
2023-01-27T08:52:49.733Z,213.18
2023-01-27T08:53:49.720Z,213.18
2023-01-27T08:54:49.720Z,213.18
2023-01-27T08:55:49.729Z,213.18
2023-01-27T08:56:49.729Z,213.18
2023-01-27T08:57:49.743Z,213.18
2023-01-27T08:58:49.725Z,213.18
2023-01-27T08:59:49.735Z,213.18
2023-01-27T09:00:49.738Z,213.18
2023-01-27T09:01:49.763Z,213.18
2023-01-27T09:02:49.750Z,213.18
2023-01-27T09:03:49.737Z,213.18
2023-01-27T09:04:49.830Z,213.18
2023-01-27T09:05:49.751Z,213.18
2023-01-27T09:06:49.760Z,213.18
2023-01-27T09:07:49.743Z,213.18
2023-01-27T09:08:49.751Z,213.18
2023-01-27T09:09:51.249Z,213.18
2023-01-27T09:10:49.763Z,213.18
2023-01-27T09:11:49.743Z,21.18
2023-01-27T09:12:49.756Z,26.82
2023-01-27T09:13:49.756Z,73.41
2023-01-27T09:14:49.744Z,73.41
2023-01-27T09:15:49.815Z,73.41
2023-01-27T09:16:49.761Z,73.41
2023-01-27T09:17:49.775Z,73.41
2023-01-27T09:18:49.759Z,73.41
2023-01-27T09:19:49.758Z,73.41
2023-01-27T09:20:49.757Z,73.41
2023-01-27T09:21:49.766Z,73.41
2023-01-27T09:22:49.759Z,73.41
2023-01-27T09:23:49.799Z,73.41
2023-01-27T09:24:49.758Z,73.41
2023-01-27T09:25:49.769Z,73.41
2023-01-27T09:26:49.770Z,73.41
2023-01-27T09:27:49.759Z,73.41
2023-01-27T09:28:49.779Z,73.41
2023-01-27T09:29:49.768Z,73.41
2023-01-27T09:30:49.833Z,73.41
2023-01-27T09:31:49.807Z,73.41
2023-01-27T09:32:49.768Z,73.41
2023-01-27T09:33:49.799Z,73.41
2023-01-27T09:34:49.783Z,73.41
2023-01-27T09:35:49.767Z,73.41
2023-01-27T09:36:49.793Z,73.41
2023-01-27T09:37:49.785Z,73.41
2023-01-27T09:38:49.777Z,73.41
2023-01-27T09:39:49.775Z,73.41
2023-01-27T09:40:49.774Z,73.41
2023-01-27T09:41:49.775Z,73.41
2023-01-27T09:42:49.778Z,73.41
2023-01-27T09:43:49.793Z,73.41
2023-01-27T09:44:49.770Z,73.41
2023-01-27T09:45:49.812Z,73.41
2023-01-27T09:46:49.785Z,73.41
2023-01-27T09:47:49.781Z,73.41
2023-01-27T09:48:49.794Z,73.41
2023-01-27T09:49:49.815Z,73.41
2023-01-27T09:50:49.779Z,73.41
2023-01-27T09:51:49.781Z,73.41
2023-01-27T09:52:49.795Z,73.41
2023-01-27T09:53:49.790Z,73.41
2023-01-27T09:54:49.784Z,73.41
2023-01-27T09:55:49.789Z,73.41
2023-01-27T09:56:49.787Z,73.41
2023-01-27T09:57:49.812Z,73.41
2023-01-27T09:58:49.795Z,73.41
2023-01-27T09:59:49.824Z,73.41
2023-01-27T10:00:49.784Z,73.41
2023-01-27T10:01:49.868Z,73.41
2023-01-27T10:02:49.791Z,73.41
2023-01-27T10:03:49.793Z,73.41
2023-01-27T10:04:49.908Z,73.41
2023-01-27T10:05:49.818Z,73.41
2023-01-27T10:06:49.807Z,73.41
2023-01-27T10:07:49.792Z,73.41
2023-01-27T10:08:49.804Z,73.41
2023-01-27T10:09:49.817Z,73.41
2023-01-27T10:10:49.810Z,73.41
2023-01-27T10:11:49.820Z,73.41
2023-01-27T10:12:49.809Z,73.41
2023-01-27T10:13:49.816Z,73.41
2023-01-27T10:14:49.832Z,73.41
2023-01-27T10:15:49.835Z,73.41
2023-01-27T10:16:49.814Z,73.41
2023-01-27T10:17:49.814Z,73.41
2023-01-27T10:18:49.820Z,73.41
2023-01-27T10:19:49.828Z,73.41
2023-01-27T10:20:49.834Z,73.41
2023-01-27T10:21:49.853Z,73.41
2023-01-27T10:22:49.827Z,73.41
2023-01-27T10:23:49.892Z,73.41
2023-01-27T10:24:49.829Z,73.41
2023-01-27T10:25:49.847Z,73.41
2023-01-27T10:26:49.825Z,73.41
2023-01-27T10:27:49.822Z,73.41
2023-01-27T10:28:49.835Z,73.41
2023-01-27T10:29:49.848Z,175.06
2023-01-27T10:30:49.860Z,175.06
2023-01-27T10:31:49.872Z,175.06
2023-01-27T10:32:49.851Z,175.06
2023-01-27T10:33:49.829Z,175.06
2023-01-27T10:34:49.838Z,175.06
2023-01-27T10:35:49.843Z,175.06
2023-01-27T10:36:49.853Z,175.06
2023-01-27T10:37:49.871Z,175.06
2023-01-27T10:38:49.851Z,175.06
2023-01-27T10:39:49.847Z,175.06
2023-01-27T10:40:49.846Z,175.06
2023-01-27T10:41:49.855Z,175.06
2023-01-27T10:42:49.872Z,175.06
2023-01-27T10:43:50.256Z,175.06
2023-01-27T10:44:49.851Z,175.06
2023-01-27T10:45:49.920Z,175.06
2023-01-27T10:46:49.902Z,175.06
2023-01-27T10:47:49.849Z,175.06
2023-01-27T10:48:49.851Z,175.06
2023-01-27T10:49:49.867Z,175.06
2023-01-27T10:50:49.857Z,175.06
2023-01-27T10:51:49.856Z,175.06
2023-01-27T10:52:49.870Z,175.06
2023-01-27T10:53:49.899Z,175.06
2023-01-27T10:54:49.878Z,175.06
2023-01-27T10:55:49.875Z,175.06
2023-01-27T10:56:49.869Z,175.06
2023-01-27T10:57:49.878Z,175.06
2023-01-27T10:58:49.884Z,175.06
2023-01-27T11:00:05.425Z,175.06
2023-01-27T11:01:20.184Z,175.06
2023-01-27T11:01:49.945Z,175.06
2023-01-27T11:02:49.877Z,175.06
2023-01-27T11:03:49.920Z,175.06
2023-01-27T11:04:49.878Z,175.06
2023-01-27T11:05:49.897Z,175.06
2023-01-27T11:06:49.879Z,175.06
2023-01-27T11:07:49.882Z,175.06
2023-01-27T11:08:49.888Z,175.06
2023-01-27T11:09:49.900Z,175.06
2023-01-27T11:10:49.884Z,175.06
2023-01-27T11:11:49.886Z,175.06
2023-01-27T11:12:49.898Z,175.06
2023-01-27T11:13:49.885Z,175.06
2023-01-27T11:14:49.887Z,175.06
2023-01-27T11:15:49.885Z,175.06
2023-01-27T11:16:49.950Z,175.06
2023-01-27T11:17:49.890Z,175.06
2023-01-27T11:18:49.906Z,175.06
2023-01-27T11:19:49.911Z,175.06
2023-01-27T11:20:49.933Z,175.06
2023-01-27T11:21:58.247Z,175.06
2023-01-27T11:22:49.896Z,175.06
2023-01-27T11:23:49.917Z,175.06
2023-01-27T11:24:49.907Z,175.06
2023-01-27T11:25:49.921Z,175.06
2023-01-27T11:26:49.914Z,175.06
2023-01-27T11:27:49.906Z,175.06
2023-01-27T11:28:49.916Z,175.06
2023-01-27T11:29:49.986Z,175.06
2023-01-27T11:30:49.950Z,175.06
2023-01-27T11:31:49.950Z,175.06
2023-01-27T11:32:49.902Z,175.06
2023-01-27T11:33:49.916Z,175.06
2023-01-27T11:34:49.907Z,175.06
2023-01-27T11:35:49.902Z,175.06
2023-01-27T11:36:50.224Z,175.06
2023-01-27T11:37:49.920Z,175.06
2023-01-27T11:38:49.909Z,175.06
2023-01-27T11:39:49.897Z,175.06
2023-01-27T11:40:49.904Z,175.06
2023-01-27T11:41:49.946Z,175.06
2023-01-27T11:42:51.792Z,175.06
2023-01-27T11:43:49.920Z,175.06
2023-01-27T11:44:49.908Z,175.06
2023-01-27T11:45:49.996Z,175.06
2023-01-27T11:46:49.912Z,175.06
2023-01-27T11:47:49.913Z,175.06
2023-01-27T11:48:49.927Z,175.06
2023-01-27T11:49:49.918Z,175.06
2023-01-27T11:50:49.906Z,175.06
2023-01-27T11:51:49.919Z,175.06
2023-01-27T11:52:49.923Z,175.06
2023-01-27T11:53:49.918Z,175.06
2023-01-27T11:54:49.922Z,175.06
2023-01-27T11:55:49.921Z,175.06
2023-01-27T11:56:49.941Z,175.06
2023-01-27T11:57:49.944Z,175.06
2023-01-27T11:58:49.916Z,175.06
2023-01-27T11:59:49.940Z,175.06
2023-01-27T12:00:49.931Z,175.06
2023-01-27T12:01:49.930Z,175.06
2023-01-27T12:02:49.942Z,175.06
2023-01-27T12:03:49.997Z,175.06
2023-01-27T12:04:49.993Z,175.06
2023-01-27T12:05:49.926Z,175.06
2023-01-27T12:06:49.944Z,175.06
2023-01-27T12:07:49.942Z,175.06
2023-01-27T12:08:49.921Z,175.06
2023-01-27T12:09:49.940Z,175.06
2023-01-27T12:10:49.932Z,175.06
2023-01-27T12:11:49.921Z,175.06
2023-01-27T12:12:49.948Z,175.06
2023-01-27T12:13:49.964Z,175.06
2023-01-27T12:14:49.938Z,175.06
2023-01-27T12:15:49.977Z,175.06
2023-01-27T12:16:49.936Z,175.06
2023-01-27T12:17:49.929Z,175.06
2023-01-27T12:18:49.954Z,175.06
2023-01-27T12:19:49.931Z,175.06
2023-01-27T12:20:49.939Z,175.06
2023-01-27T12:21:49.936Z,175.06
2023-01-27T12:22:49.936Z,175.06
2023-01-27T12:23:49.973Z,175.06
2023-01-27T12:24:49.971Z,175.06
2023-01-27T12:25:50.700Z,175.06
2023-01-27T12:26:49.932Z,175.06
2023-01-27T12:27:49.932Z,175.06
2023-01-27T12:28:49.929Z,175.06
2023-01-27T12:29:49.950Z,175.06
2023-01-27T12:30:50.030Z,175.06
2023-01-27T12:31:49.981Z,175.06
2023-01-27T12:32:49.941Z,175.06